ADDS METAR Data

Data at: 2308 UTC 15 Aug 2018

METAR for:KPHX (Phoenix/Sky Harbor, AZ, US)
Text:KPHX 152251Z 00000KT 10SM FEW060 SCT170 SCT210 BKN250 35/16 A2982 RMK AO2 SLP077 T03500156
Temperature: 35.0°C ( 95°F)
Dewpoint: 15.6°C ( 60°F) [RH = 32%]
Pressure (altimeter):29.82 inches Hg (1009.9 mb) [Sea level pressure: 1007.7 mb]
Winds:calm
Visibility:10 or more sm (16+ km)
Ceiling:25000 feet AGL
Clouds: few clouds at 6000 feet AGL, scattered clouds at 17000 feet AGL, scattered clouds at 21000 feet AGL, broken clouds at 25000 feet AGL